sensor_id;sensor_type;location;lat;lon;timestamp;P1;durP1;ratioP1;P2;durP2;ratioP2
74957;SDS011;63741;42.624;26.276;2023-07-16T00:01:01;5.57;;;2.60;;
74957;SDS011;63741;42.624;26.276;2023-07-16T00:03:27;5.60;;;2.38;;
74957;SDS011;63741;42.624;26.276;2023-07-16T00:05:54;4.75;;;2.00;;
74957;SDS011;63741;42.624;26.276;2023-07-16T00:08:21;5.97;;;2.53;;
74957;SDS011;63741;42.624;26.276;2023-07-16T00:10:49;4.35;;;2.33;;
74957;SDS011;63741;42.624;26.276;2023-07-16T00:13:15;7.53;;;2.65;;
74957;SDS011;63741;42.624;26.276;2023-07-16T00:15:42;5.55;;;2.70;;
74957;SDS011;63741;42.624;26.276;2023-07-16T00:18:09;10.80;;;2.88;;
74957;SDS011;63741;42.624;26.276;2023-07-16T00:20:36;5.63;;;2.38;;
74957;SDS011;63741;42.624;26.276;2023-07-16T00:23:03;9.63;;;2.65;;
74957;SDS011;63741;42.624;26.276;2023-07-16T00:25:30;6.38;;;2.70;;
74957;SDS011;63741;42.624;26.276;2023-07-16T00:27:57;5.45;;;2.42;;
74957;SDS011;63741;42.624;26.276;2023-07-16T00:30:24;4.65;;;2.33;;
74957;SDS011;63741;42.624;26.276;2023-07-16T00:32:51;3.85;;;2.60;;
74957;SDS011;63741;42.624;26.276;2023-07-16T00:35:18;7.20;;;2.45;;
74957;SDS011;63741;42.624;26.276;2023-07-16T00:37:45;4.55;;;2.53;;
74957;SDS011;63741;42.624;26.276;2023-07-16T00:40:12;9.35;;;2.97;;
74957;SDS011;63741;42.624;26.276;2023-07-16T00:42:40;4.57;;;2.80;;
74957;SDS011;63741;42.624;26.276;2023-07-16T00:45:08;7.75;;;3.47;;
74957;SDS011;63741;42.624;26.276;2023-07-16T00:47:39;8.50;;;3.55;;
74957;SDS011;63741;42.624;26.276;2023-07-16T00:50:10;5.38;;;3.67;;
74957;SDS011;63741;42.624;26.276;2023-07-16T00:52:38;8.45;;;3.83;;
74957;SDS011;63741;42.624;26.276;2023-07-16T00:55:07;11.48;;;3.83;;
74957;SDS011;63741;42.624;26.276;2023-07-16T00:57:35;6.72;;;3.97;;
74957;SDS011;63741;42.624;26.276;2023-07-16T01:00:02;8.20;;;3.60;;
74957;SDS011;63741;42.624;26.276;2023-07-16T01:02:31;5.05;;;2.80;;
74957;SDS011;63741;42.624;26.276;2023-07-16T01:04:58;5.47;;;2.80;;
74957;SDS011;63741;42.624;26.276;2023-07-16T01:07:27;6.90;;;2.95;;
74957;SDS011;63741;42.624;26.276;2023-07-16T01:09:57;3.78;;;2.45;;
74957;SDS011;63741;42.624;26.276;2023-07-16T01:12:25;7.55;;;2.60;;
74957;SDS011;63741;42.624;26.276;2023-07-16T01:14:54;5.43;;;2.75;;
74957;SDS011;63741;42.624;26.276;2023-07-16T01:17:23;3.53;;;2.72;;
74957;SDS011;63741;42.624;26.276;2023-07-16T01:19:51;6.25;;;2.63;;
74957;SDS011;63741;42.624;26.276;2023-07-16T01:30:28;5.53;;;2.60;;
74957;SDS011;63741;42.624;26.276;2023-07-16T01:32:56;4.15;;;2.80;;
74957;SDS011;63741;42.624;26.276;2023-07-16T01:35:24;5.43;;;2.60;;
74957;SDS011;63741;42.624;26.276;2023-07-16T01:37:52;2.90;;;2.40;;
74957;SDS011;63741;42.624;26.276;2023-07-16T01:40:19;5.05;;;2.75;;
74957;SDS011;63741;42.624;26.276;2023-07-16T01:42:46;4.40;;;2.50;;
74957;SDS011;63741;42.624;26.276;2023-07-16T01:45:13;3.85;;;2.60;;
74957;SDS011;63741;42.624;26.276;2023-07-16T01:50:22;7.90;;;3.03;;
74957;SDS011;63741;42.624;26.276;2023-07-16T01:52:49;6.78;;;2.67;;
74957;SDS011;63741;42.624;26.276;2023-07-16T01:55:16;6.47;;;2.83;;
74957;SDS011;63741;42.624;26.276;2023-07-16T01:57:43;10.65;;;2.67;;
74957;SDS011;63741;42.624;26.276;2023-07-16T02:00:10;6.57;;;2.80;;
74957;SDS011;63741;42.624;26.276;2023-07-16T02:02:50;6.05;;;2.75;;
74957;SDS011;63741;42.624;26.276;2023-07-16T02:05:17;3.78;;;2.47;;
74957;SDS011;63741;42.624;26.276;2023-07-16T02:07:44;4.55;;;2.70;;
74957;SDS011;63741;42.624;26.276;2023-07-16T02:10:11;4.20;;;2.88;;
74957;SDS011;63741;42.624;26.276;2023-07-16T02:12:37;9.70;;;2.78;;
74957;SDS011;63741;42.624;26.276;2023-07-16T02:15:05;4.68;;;3.10;;
74957;SDS011;63741;42.624;26.276;2023-07-16T02:17:36;5.00;;;2.70;;
74957;SDS011;63741;42.624;26.276;2023-07-16T02:20:03;4.65;;;2.55;;
74957;SDS011;63741;42.624;26.276;2023-07-16T02:22:33;4.13;;;2.70;;
74957;SDS011;63741;42.624;26.276;2023-07-16T02:25:02;3.95;;;2.80;;
74957;SDS011;63741;42.624;26.276;2023-07-16T02:27:29;4.65;;;2.95;;
74957;SDS011;63741;42.624;26.276;2023-07-16T02:29:56;7.47;;;2.90;;
74957;SDS011;63741;42.624;26.276;2023-07-16T02:32:23;8.15;;;3.25;;
74957;SDS011;63741;42.624;26.276;2023-07-16T02:34:50;3.92;;;2.78;;
74957;SDS011;63741;42.624;26.276;2023-07-16T02:37:17;5.20;;;2.80;;
74957;SDS011;63741;42.624;26.276;2023-07-16T02:39:44;5.75;;;2.95;;
74957;SDS011;63741;42.624;26.276;2023-07-16T02:42:14;4.70;;;2.70;;
74957;SDS011;63741;42.624;26.276;2023-07-16T02:44:41;8.15;;;3.08;;
74957;SDS011;63741;42.624;26.276;2023-07-16T02:47:11;4.30;;;2.85;;
74957;SDS011;63741;42.624;26.276;2023-07-16T02:49:39;20.35;;;3.72;;
74957;SDS011;63741;42.624;26.276;2023-07-16T02:52:06;7.70;;;3.30;;
74957;SDS011;63741;42.624;26.276;2023-07-16T02:54:36;7.32;;;3.05;;
74957;SDS011;63741;42.624;26.276;2023-07-16T02:57:03;10.25;;;3.25;;
74957;SDS011;63741;42.624;26.276;2023-07-16T02:59:31;8.80;;;3.25;;
74957;SDS011;63741;42.624;26.276;2023-07-16T03:01:58;7.20;;;3.00;;
74957;SDS011;63741;42.624;26.276;2023-07-16T03:04:26;6.90;;;3.25;;
74957;SDS011;63741;42.624;26.276;2023-07-16T03:06:52;9.65;;;3.30;;
74957;SDS011;63741;42.624;26.276;2023-07-16T03:09:21;8.80;;;3.10;;
74957;SDS011;63741;42.624;26.276;2023-07-16T03:11:48;6.78;;;3.03;;
74957;SDS011;63741;42.624;26.276;2023-07-16T03:14:17;9.45;;;3.20;;
74957;SDS011;63741;42.624;26.276;2023-07-16T03:16:44;8.63;;;3.00;;
74957;SDS011;63741;42.624;26.276;2023-07-16T03:19:11;4.70;;;2.83;;
74957;SDS011;63741;42.624;26.276;2023-07-16T03:21:38;5.22;;;2.80;;
74957;SDS011;63741;42.624;26.276;2023-07-16T03:24:05;7.32;;;3.00;;
74957;SDS011;63741;42.624;26.276;2023-07-16T03:26:32;5.88;;;2.72;;
74957;SDS011;63741;42.624;26.276;2023-07-16T03:28:59;64.60;;;5.68;;
74957;SDS011;63741;42.624;26.276;2023-07-16T03:31:27;17.02;;;3.53;;
74957;SDS011;63741;42.624;26.276;2023-07-16T03:33:55;9.07;;;3.10;;
74957;SDS011;63741;42.624;26.276;2023-07-16T03:36:26;8.55;;;3.10;;
74957;SDS011;63741;42.624;26.276;2023-07-16T03:38:53;6.18;;;2.92;;
74957;SDS011;63741;42.624;26.276;2023-07-16T03:41:20;4.43;;;3.22;;
74957;SDS011;63741;42.624;26.276;2023-07-16T03:43:47;16.92;;;3.63;;
74957;SDS011;63741;42.624;26.276;2023-07-16T03:46:17;8.38;;;3.10;;
74957;SDS011;63741;42.624;26.276;2023-07-16T03:48:44;15.50;;;3.30;;
74957;SDS011;63741;42.624;26.276;2023-07-16T03:51:12;12.45;;;3.60;;
74957;SDS011;63741;42.624;26.276;2023-07-16T03:53:39;6.55;;;3.67;;
74957;SDS011;63741;42.624;26.276;2023-07-16T03:56:06;9.35;;;3.70;;
74957;SDS011;63741;42.624;26.276;2023-07-16T03:58:34;20.05;;;4.00;;
74957;SDS011;63741;42.624;26.276;2023-07-16T04:01:04;19.73;;;3.10;;
74957;SDS011;63741;42.624;26.276;2023-07-16T04:03:31;26.35;;;3.60;;
74957;SDS011;63741;42.624;26.276;2023-07-16T04:06:02;27.02;;;4.00;;
74957;SDS011;63741;42.624;26.276;2023-07-16T04:08:30;8.93;;;3.00;;
74957;SDS011;63741;42.624;26.276;2023-07-16T04:10:57;8.60;;;3.38;;
74957;SDS011;63741;42.624;26.276;2023-07-16T04:13:24;8.57;;;3.20;;
74957;SDS011;63741;42.624;26.276;2023-07-16T04:15:51;10.65;;;3.25;;
74957;SDS011;63741;42.624;26.276;2023-07-16T04:18:21;9.23;;;3.13;;
74957;SDS011;63741;42.624;26.276;2023-07-16T04:20:51;5.57;;;3.08;;
74957;SDS011;63741;42.624;26.276;2023-07-16T04:23:18;9.23;;;3.05;;
74957;SDS011;63741;42.624;26.276;2023-07-16T04:25:45;9.32;;;3.10;;
74957;SDS011;63741;42.624;26.276;2023-07-16T04:28:12;6.82;;;2.97;;
74957;SDS011;63741;42.624;26.276;2023-07-16T04:30:39;7.03;;;2.88;;
74957;SDS011;63741;42.624;26.276;2023-07-16T04:33:06;17.48;;;3.50;;
74957;SDS011;63741;42.624;26.276;2023-07-16T04:35:33;9.90;;;3.53;;
74957;SDS011;63741;42.624;26.276;2023-07-16T04:38:00;8.73;;;2.80;;
74957;SDS011;63741;42.624;26.276;2023-07-16T04:40:31;8.40;;;3.17;;
74957;SDS011;63741;42.624;26.276;2023-07-16T04:42:58;5.88;;;2.95;;
74957;SDS011;63741;42.624;26.276;2023-07-16T04:45:25;7.95;;;3.05;;
74957;SDS011;63741;42.624;26.276;2023-07-16T04:47:51;5.95;;;3.10;;
74957;SDS011;63741;42.624;26.276;2023-07-16T04:50:18;6.70;;;3.03;;
74957;SDS011;63741;42.624;26.276;2023-07-16T04:52:45;10.90;;;3.00;;
74957;SDS011;63741;42.624;26.276;2023-07-16T04:55:12;17.88;;;3.22;;
74957;SDS011;63741;42.624;26.276;2023-07-16T04:57:39;6.80;;;2.75;;
74957;SDS011;63741;42.624;26.276;2023-07-16T05:00:06;8.52;;;2.95;;
74957;SDS011;63741;42.624;26.276;2023-07-16T05:02:34;9.85;;;3.17;;
74957;SDS011;63741;42.624;26.276;2023-07-16T05:05:01;5.15;;;2.65;;
74957;SDS011;63741;42.624;26.276;2023-07-16T05:07:28;11.63;;;3.08;;
74957;SDS011;63741;42.624;26.276;2023-07-16T05:09:55;11.25;;;3.00;;
74957;SDS011;63741;42.624;26.276;2023-07-16T05:12:22;14.20;;;3.08;;
74957;SDS011;63741;42.624;26.276;2023-07-16T05:14:49;6.88;;;2.80;;
74957;SDS011;63741;42.624;26.276;2023-07-16T05:17:16;12.60;;;2.72;;
74957;SDS011;63741;42.624;26.276;2023-07-16T05:19:43;7.57;;;2.80;;
74957;SDS011;63741;42.624;26.276;2023-07-16T05:22:11;4.18;;;2.40;;
74957;SDS011;63741;42.624;26.276;2023-07-16T05:24:37;14.13;;;3.40;;
74957;SDS011;63741;42.624;26.276;2023-07-16T05:27:05;12.23;;;3.50;;
74957;SDS011;63741;42.624;26.276;2023-07-16T05:29:32;11.27;;;3.10;;
74957;SDS011;63741;42.624;26.276;2023-07-16T05:31:59;44.92;;;4.13;;
74957;SDS011;63741;42.624;26.276;2023-07-16T05:34:26;5.35;;;2.83;;
74957;SDS011;63741;42.624;26.276;2023-07-16T05:36:54;5.28;;;2.92;;
74957;SDS011;63741;42.624;26.276;2023-07-16T05:39:24;6.68;;;2.70;;
74957;SDS011;63741;42.624;26.276;2023-07-16T05:41:53;29.80;;;3.78;;
74957;SDS011;63741;42.624;26.276;2023-07-16T05:44:32;17.17;;;3.35;;
74957;SDS011;63741;42.624;26.276;2023-07-16T05:46:59;13.80;;;3.33;;
74957;SDS011;63741;42.624;26.276;2023-07-16T05:49:26;4.68;;;2.80;;
74957;SDS011;63741;42.624;26.276;2023-07-16T05:51:54;8.60;;;3.10;;
74957;SDS011;63741;42.624;26.276;2023-07-16T05:54:23;35.20;;;3.30;;
74957;SDS011;63741;42.624;26.276;2023-07-16T05:56:50;8.93;;;2.60;;
74957;SDS011;63741;42.624;26.276;2023-07-16T05:59:17;5.45;;;2.45;;
74957;SDS011;63741;42.624;26.276;2023-07-16T06:01:46;21.20;;;2.97;;
74957;SDS011;63741;42.624;26.276;2023-07-16T06:04:13;4.38;;;2.25;;
74957;SDS011;63741;42.624;26.276;2023-07-16T06:06:40;7.45;;;2.20;;
74957;SDS011;63741;42.624;26.276;2023-07-16T06:09:07;12.68;;;2.80;;
74957;SDS011;63741;42.624;26.276;2023-07-16T06:11:34;10.07;;;2.70;;
74957;SDS011;63741;42.624;26.276;2023-07-16T06:14:01;8.50;;;2.28;;
74957;SDS011;63741;42.624;26.276;2023-07-16T06:16:28;4.60;;;2.33;;
74957;SDS011;63741;42.624;26.276;2023-07-16T06:18:55;7.70;;;2.50;;
74957;SDS011;63741;42.624;26.276;2023-07-16T06:21:22;15.15;;;2.58;;
74957;SDS011;63741;42.624;26.276;2023-07-16T06:23:48;26.30;;;3.03;;
74957;SDS011;63741;42.624;26.276;2023-07-16T06:26:16;9.43;;;2.25;;
74957;SDS011;63741;42.624;26.276;2023-07-16T06:28:43;6.53;;;1.98;;
74957;SDS011;63741;42.624;26.276;2023-07-16T06:31:10;7.13;;;2.40;;
74957;SDS011;63741;42.624;26.276;2023-07-16T06:33:37;4.57;;;2.35;;
74957;SDS011;63741;42.624;26.276;2023-07-16T06:36:04;6.13;;;2.35;;
74957;SDS011;63741;42.624;26.276;2023-07-16T06:38:31;4.15;;;2.40;;
74957;SDS011;63741;42.624;26.276;2023-07-16T06:40:58;12.75;;;2.60;;
74957;SDS011;63741;42.624;26.276;2023-07-16T06:43:25;6.05;;;2.20;;
74957;SDS011;63741;42.624;26.276;2023-07-16T06:45:52;5.10;;;2.42;;
74957;SDS011;63741;42.624;26.276;2023-07-16T06:48:19;12.13;;;2.70;;
74957;SDS011;63741;42.624;26.276;2023-07-16T06:50:45;8.15;;;2.60;;
74957;SDS011;63741;42.624;26.276;2023-07-16T06:53:12;17.92;;;3.08;;
74957;SDS011;63741;42.624;26.276;2023-07-16T06:55:40;6.05;;;2.38;;
74957;SDS011;63741;42.624;26.276;2023-07-16T06:58:11;7.10;;;2.40;;
74957;SDS011;63741;42.624;26.276;2023-07-16T07:00:38;32.58;;;3.58;;
74957;SDS011;63741;42.624;26.276;2023-07-16T07:03:05;7.25;;;2.63;;
74957;SDS011;63741;42.624;26.276;2023-07-16T07:05:32;5.07;;;2.20;;
74957;SDS011;63741;42.624;26.276;2023-07-16T07:07:59;4.20;;;2.03;;
74957;SDS011;63741;42.624;26.276;2023-07-16T07:10:26;5.13;;;2.17;;
74957;SDS011;63741;42.624;26.276;2023-07-16T07:12:53;6.22;;;2.40;;
74957;SDS011;63741;42.624;26.276;2023-07-16T07:15:20;3.92;;;2.05;;
74957;SDS011;63741;42.624;26.276;2023-07-16T07:17:46;4.28;;;2.42;;
74957;SDS011;63741;42.624;26.276;2023-07-16T07:20:15;5.75;;;2.30;;
74957;SDS011;63741;42.624;26.276;2023-07-16T07:22:42;8.73;;;2.10;;
74957;SDS011;63741;42.624;26.276;2023-07-16T07:25:09;6.32;;;1.77;;
74957;SDS011;63741;42.624;26.276;2023-07-16T07:27:36;9.93;;;2.20;;
74957;SDS011;63741;42.624;26.276;2023-07-16T07:30:03;5.88;;;2.30;;
74957;SDS011;63741;42.624;26.276;2023-07-16T07:32:30;9.20;;;2.25;;
74957;SDS011;63741;42.624;26.276;2023-07-16T07:34:57;7.35;;;2.20;;
74957;SDS011;63741;42.624;26.276;2023-07-16T07:37:26;10.25;;;2.28;;
74957;SDS011;63741;42.624;26.276;2023-07-16T07:39:53;4.07;;;1.70;;
74957;SDS011;63741;42.624;26.276;2023-07-16T07:42:20;6.30;;;2.08;;
74957;SDS011;63741;42.624;26.276;2023-07-16T07:44:51;6.13;;;1.65;;
74957;SDS011;63741;42.624;26.276;2023-07-16T07:47:17;5.78;;;2.03;;
74957;SDS011;63741;42.624;26.276;2023-07-16T07:49:44;5.82;;;2.13;;
74957;SDS011;63741;42.624;26.276;2023-07-16T07:52:11;5.50;;;1.90;;
74957;SDS011;63741;42.624;26.276;2023-07-16T07:54:39;3.83;;;1.90;;
74957;SDS011;63741;42.624;26.276;2023-07-16T07:57:06;7.93;;;2.10;;
74957;SDS011;63741;42.624;26.276;2023-07-16T07:59:33;3.83;;;2.03;;
74957;SDS011;63741;42.624;26.276;2023-07-16T08:02:00;11.63;;;2.00;;
74957;SDS011;63741;42.624;26.276;2023-07-16T08:04:28;5.70;;;1.90;;
74957;SDS011;63741;42.624;26.276;2023-07-16T08:06:55;10.35;;;2.20;;
74957;SDS011;63741;42.624;26.276;2023-07-16T08:09:22;7.60;;;1.98;;
74957;SDS011;63741;42.624;26.276;2023-07-16T08:11:49;9.48;;;2.10;;
74957;SDS011;63741;42.624;26.276;2023-07-16T08:14:16;3.53;;;1.65;;
74957;SDS011;63741;42.624;26.276;2023-07-16T08:16:43;6.03;;;1.98;;
74957;SDS011;63741;42.624;26.276;2023-07-16T08:19:10;14.65;;;2.60;;
74957;SDS011;63741;42.624;26.276;2023-07-16T08:21:39;6.22;;;1.90;;
74957;SDS011;63741;42.624;26.276;2023-07-16T08:24:06;5.10;;;1.88;;
74957;SDS011;63741;42.624;26.276;2023-07-16T08:26:33;4.90;;;1.83;;
74957;SDS011;63741;42.624;26.276;2023-07-16T08:29:00;5.93;;;1.80;;
74957;SDS011;63741;42.624;26.276;2023-07-16T08:31:27;6.65;;;2.10;;
74957;SDS011;63741;42.624;26.276;2023-07-16T08:33:55;3.53;;;1.60;;
74957;SDS011;63741;42.624;26.276;2023-07-16T08:36:23;13.57;;;2.42;;
74957;SDS011;63741;42.624;26.276;2023-07-16T08:38:50;6.05;;;2.00;;
74957;SDS011;63741;42.624;26.276;2023-07-16T08:41:17;13.38;;;2.33;;
74957;SDS011;63741;42.624;26.276;2023-07-16T08:43:47;6.80;;;2.10;;
74957;SDS011;63741;42.624;26.276;2023-07-16T08:46:16;8.63;;;2.20;;
74957;SDS011;63741;42.624;26.276;2023-07-16T08:48:44;8.57;;;1.90;;
74957;SDS011;63741;42.624;26.276;2023-07-16T08:51:13;4.43;;;1.90;;
74957;SDS011;63741;42.624;26.276;2023-07-16T08:53:41;7.50;;;2.05;;
74957;SDS011;63741;42.624;26.276;2023-07-16T08:56:08;10.85;;;2.35;;
74957;SDS011;63741;42.624;26.276;2023-07-16T08:58:36;7.30;;;2.20;;
74957;SDS011;63741;42.624;26.276;2023-07-16T09:01:05;4.78;;;1.58;;
74957;SDS011;63741;42.624;26.276;2023-07-16T09:03:32;5.50;;;2.00;;
74957;SDS011;63741;42.624;26.276;2023-07-16T09:05:59;4.68;;;1.75;;
74957;SDS011;63741;42.624;26.276;2023-07-16T09:08:26;7.70;;;2.53;;
74957;SDS011;63741;42.624;26.276;2023-07-16T09:10:55;18.45;;;2.58;;
74957;SDS011;63741;42.624;26.276;2023-07-16T09:13:23;5.45;;;1.95;;
74957;SDS011;63741;42.624;26.276;2023-07-16T09:15:54;5.03;;;2.10;;
74957;SDS011;63741;42.624;26.276;2023-07-16T09:18:23;5.78;;;2.13;;
74957;SDS011;63741;42.624;26.276;2023-07-16T09:20:55;6.57;;;2.20;;
74957;SDS011;63741;42.624;26.276;2023-07-16T09:23:26;5.57;;;1.90;;
74957;SDS011;63741;42.624;26.276;2023-07-16T09:25:54;3.53;;;2.10;;
74957;SDS011;63741;42.624;26.276;2023-07-16T09:28:21;3.75;;;2.00;;
74957;SDS011;63741;42.624;26.276;2023-07-16T09:30:50;6.28;;;2.13;;
74957;SDS011;63741;42.624;26.276;2023-07-16T09:33:18;4.40;;;2.20;;
74957;SDS011;63741;42.624;26.276;2023-07-16T09:35:49;3.60;;;2.13;;
74957;SDS011;63741;42.624;26.276;2023-07-16T09:38:17;9.88;;;2.40;;
74957;SDS011;63741;42.624;26.276;2023-07-16T09:40:45;7.05;;;2.20;;
74957;SDS011;63741;42.624;26.276;2023-07-16T09:43:12;8.90;;;2.28;;
74957;SDS011;63741;42.624;26.276;2023-07-16T09:45:40;5.00;;;2.00;;
74957;SDS011;63741;42.624;26.276;2023-07-16T09:48:08;6.45;;;2.50;;
74957;SDS011;63741;42.624;26.276;2023-07-16T09:50:36;9.27;;;2.60;;
74957;SDS011;63741;42.624;26.276;2023-07-16T09:53:05;3.42;;;2.20;;
74957;SDS011;63741;42.624;26.276;2023-07-16T09:55:34;11.02;;;2.78;;
74957;SDS011;63741;42.624;26.276;2023-07-16T09:58:05;5.15;;;2.38;;
74957;SDS011;63741;42.624;26.276;2023-07-16T10:00:36;6.07;;;2.33;;
74957;SDS011;63741;42.624;26.276;2023-07-16T10:03:06;7.55;;;2.50;;
74957;SDS011;63741;42.624;26.276;2023-07-16T10:05:37;6.53;;;2.75;;
74957;SDS011;63741;42.624;26.276;2023-07-16T10:08:04;8.15;;;2.60;;
74957;SDS011;63741;42.624;26.276;2023-07-16T10:10:43;7.03;;;2.70;;
74957;SDS011;63741;42.624;26.276;2023-07-16T10:13:30;7.15;;;2.45;;
74957;SDS011;63741;42.624;26.276;2023-07-16T10:16:00;5.07;;;2.20;;
74957;SDS011;63741;42.624;26.276;2023-07-16T10:18:28;4.90;;;2.20;;
74957;SDS011;63741;42.624;26.276;2023-07-16T10:21:06;9.77;;;2.45;;
74957;SDS011;63741;42.624;26.276;2023-07-16T10:23:42;5.60;;;2.45;;
74957;SDS011;63741;42.624;26.276;2023-07-16T10:26:10;10.93;;;2.85;;
74957;SDS011;63741;42.624;26.276;2023-07-16T10:28:45;7.68;;;2.70;;
74957;SDS011;63741;42.624;26.276;2023-07-16T10:31:22;15.10;;;2.63;;
74957;SDS011;63741;42.624;26.276;2023-07-16T10:34:01;4.70;;;2.60;;
74957;SDS011;63741;42.624;26.276;2023-07-16T10:36:40;63.10;;;4.57;;
74957;SDS011;63741;42.624;26.276;2023-07-16T10:39:08;6.85;;;2.70;;
74957;SDS011;63741;42.624;26.276;2023-07-16T10:41:35;11.02;;;2.60;;
74957;SDS011;63741;42.624;26.276;2023-07-16T10:44:02;6.07;;;2.50;;
74957;SDS011;63741;42.624;26.276;2023-07-16T10:46:30;6.25;;;2.45;;
74957;SDS011;63741;42.624;26.276;2023-07-16T10:48:58;8.23;;;2.55;;
74957;SDS011;63741;42.624;26.276;2023-07-16T10:51:26;7.95;;;2.83;;
74957;SDS011;63741;42.624;26.276;2023-07-16T10:53:55;5.15;;;2.72;;
74957;SDS011;63741;42.624;26.276;2023-07-16T10:56:23;5.40;;;2.30;;
74957;SDS011;63741;42.624;26.276;2023-07-16T10:58:51;6.90;;;2.38;;
74957;SDS011;63741;42.624;26.276;2023-07-16T11:01:18;10.00;;;2.42;;
74957;SDS011;63741;42.624;26.276;2023-07-16T11:03:45;7.03;;;2.80;;
74957;SDS011;63741;42.624;26.276;2023-07-16T11:06:12;6.45;;;2.47;;
74957;SDS011;63741;42.624;26.276;2023-07-16T11:08:39;5.53;;;2.42;;
74957;SDS011;63741;42.624;26.276;2023-07-16T11:11:06;6.78;;;2.20;;
74957;SDS011;63741;42.624;26.276;2023-07-16T11:13:33;9.05;;;2.38;;
74957;SDS011;63741;42.624;26.276;2023-07-16T11:16:07;9.52;;;2.72;;
74957;SDS011;63741;42.624;26.276;2023-07-16T11:18:35;9.43;;;2.88;;
74957;SDS011;63741;42.624;26.276;2023-07-16T11:21:03;9.05;;;2.60;;
74957;SDS011;63741;42.624;26.276;2023-07-16T11:23:33;4.65;;;1.90;;
74957;SDS011;63741;42.624;26.276;2023-07-16T11:26:02;5.25;;;2.25;;
74957;SDS011;63741;42.624;26.276;2023-07-16T11:28:37;8.75;;;2.33;;
74957;SDS011;63741;42.624;26.276;2023-07-16T11:31:14;3.58;;;2.08;;
74957;SDS011;63741;42.624;26.276;2023-07-16T11:33:43;4.93;;;2.80;;
74957;SDS011;63741;42.624;26.276;2023-07-16T11:36:11;6.70;;;2.40;;
74957;SDS011;63741;42.624;26.276;2023-07-16T11:38:39;5.18;;;2.53;;
74957;SDS011;63741;42.624;26.276;2023-07-16T11:41:06;7.57;;;2.70;;
74957;SDS011;63741;42.624;26.276;2023-07-16T11:43:34;5.50;;;2.63;;
74957;SDS011;63741;42.624;26.276;2023-07-16T11:46:05;4.95;;;2.50;;
74957;SDS011;63741;42.624;26.276;2023-07-16T11:48:41;5.30;;;2.42;;
74957;SDS011;63741;42.624;26.276;2023-07-16T11:51:08;9.70;;;2.92;;
74957;SDS011;63741;42.624;26.276;2023-07-16T11:53:35;9.95;;;2.67;;
74957;SDS011;63741;42.624;26.276;2023-07-16T11:56:05;5.13;;;2.50;;
74957;SDS011;63741;42.624;26.276;2023-07-16T11:58:32;4.90;;;2.63;;
74957;SDS011;63741;42.624;26.276;2023-07-16T12:00:59;14.57;;;2.78;;
74957;SDS011;63741;42.624;26.276;2023-07-16T12:03:26;9.70;;;2.80;;
74957;SDS011;63741;42.624;26.276;2023-07-16T12:05:53;6.93;;;2.40;;
74957;SDS011;63741;42.624;26.276;2023-07-16T12:08:20;3.28;;;2.38;;
74957;SDS011;63741;42.624;26.276;2023-07-16T12:10:47;16.25;;;3.05;;
74957;SDS011;63741;42.624;26.276;2023-07-16T12:13:14;4.72;;;2.60;;
74957;SDS011;63741;42.624;26.276;2023-07-16T12:15:41;6.07;;;2.50;;
74957;SDS011;63741;42.624;26.276;2023-07-16T12:18:08;6.60;;;2.75;;
74957;SDS011;63741;42.624;26.276;2023-07-16T12:20:35;6.35;;;2.72;;
74957;SDS011;63741;42.624;26.276;2023-07-16T12:23:02;8.20;;;2.90;;
74957;SDS011;63741;42.624;26.276;2023-07-16T12:25:30;9.40;;;2.90;;
74957;SDS011;63741;42.624;26.276;2023-07-16T12:27:57;9.88;;;2.67;;
74957;SDS011;63741;42.624;26.276;2023-07-16T12:30:24;4.22;;;2.55;;
74957;SDS011;63741;42.624;26.276;2023-07-16T12:32:52;4.90;;;2.38;;
74957;SDS011;63741;42.624;26.276;2023-07-16T12:35:19;4.07;;;2.38;;
74957;SDS011;63741;42.624;26.276;2023-07-16T12:37:46;3.70;;;2.58;;
74957;SDS011;63741;42.624;26.276;2023-07-16T12:40:13;4.15;;;2.60;;
74957;SDS011;63741;42.624;26.276;2023-07-16T12:42:40;5.40;;;2.55;;
74957;SDS011;63741;42.624;26.276;2023-07-16T12:45:07;8.48;;;3.00;;
74957;SDS011;63741;42.624;26.276;2023-07-16T12:47:34;11.10;;;2.60;;
74957;SDS011;63741;42.624;26.276;2023-07-16T12:50:02;6.55;;;2.58;;
74957;SDS011;63741;42.624;26.276;2023-07-16T12:52:29;4.78;;;2.40;;
74957;SDS011;63741;42.624;26.276;2023-07-16T12:54:55;6.18;;;2.70;;
74957;SDS011;63741;42.624;26.276;2023-07-16T12:57:24;6.63;;;2.45;;
74957;SDS011;63741;42.624;26.276;2023-07-16T12:59:51;5.50;;;2.88;;
74957;SDS011;63741;42.624;26.276;2023-07-16T13:02:18;6.40;;;2.88;;
74957;SDS011;63741;42.624;26.276;2023-07-16T13:04:45;3.85;;;2.58;;
74957;SDS011;63741;42.624;26.276;2023-07-16T13:07:12;4.82;;;2.67;;
74957;SDS011;63741;42.624;26.276;2023-07-16T13:09:39;8.02;;;2.90;;
74957;SDS011;63741;42.624;26.276;2023-07-16T13:12:06;4.10;;;2.35;;
74957;SDS011;63741;42.624;26.276;2023-07-16T13:14:33;4.93;;;2.67;;
74957;SDS011;63741;42.624;26.276;2023-07-16T13:17:00;5.47;;;2.72;;
74957;SDS011;63741;42.624;26.276;2023-07-16T13:19:28;4.65;;;2.55;;
74957;SDS011;63741;42.624;26.276;2023-07-16T13:21:55;4.35;;;2.33;;
74957;SDS011;63741;42.624;26.276;2023-07-16T13:24:22;14.93;;;2.70;;
74957;SDS011;63741;42.624;26.276;2023-07-16T13:26:48;7.30;;;2.30;;
74957;SDS011;63741;42.624;26.276;2023-07-16T13:29:15;5.45;;;2.47;;
74957;SDS011;63741;42.624;26.276;2023-07-16T13:31:42;6.05;;;2.35;;
74957;SDS011;63741;42.624;26.276;2023-07-16T13:34:12;7.03;;;2.63;;
74957;SDS011;63741;42.624;26.276;2023-07-16T13:36:43;11.65;;;2.53;;
74957;SDS011;63741;42.624;26.276;2023-07-16T13:39:10;4.97;;;2.40;;
74957;SDS011;63741;42.624;26.276;2023-07-16T13:41:39;5.65;;;2.70;;
74957;SDS011;63741;42.624;26.276;2023-07-16T13:44:06;6.88;;;2.60;;
74957;SDS011;63741;42.624;26.276;2023-07-16T13:46:33;6.85;;;2.70;;
74957;SDS011;63741;42.624;26.276;2023-07-16T13:49:00;5.22;;;2.63;;
74957;SDS011;63741;42.624;26.276;2023-07-16T13:51:27;5.78;;;2.42;;
74957;SDS011;63741;42.624;26.276;2023-07-16T13:53:54;4.57;;;2.58;;
74957;SDS011;63741;42.624;26.276;2023-07-16T13:56:21;3.97;;;2.35;;
74957;SDS011;63741;42.624;26.276;2023-07-16T13:58:48;4.80;;;2.38;;
74957;SDS011;63741;42.624;26.276;2023-07-16T14:01:16;6.70;;;2.65;;
74957;SDS011;63741;42.624;26.276;2023-07-16T14:03:45;16.83;;;2.90;;
74957;SDS011;63741;42.624;26.276;2023-07-16T14:06:12;6.57;;;2.40;;
74957;SDS011;63741;42.624;26.276;2023-07-16T14:08:39;4.93;;;2.40;;
74957;SDS011;63741;42.624;26.276;2023-07-16T14:11:06;6.00;;;2.70;;
74957;SDS011;63741;42.624;26.276;2023-07-16T14:13:33;5.15;;;2.60;;
74957;SDS011;63741;42.624;26.276;2023-07-16T14:16:00;8.38;;;2.65;;
74957;SDS011;63741;42.624;26.276;2023-07-16T14:18:27;9.07;;;2.63;;
74957;SDS011;63741;42.624;26.276;2023-07-16T14:20:54;13.15;;;2.92;;
74957;SDS011;63741;42.624;26.276;2023-07-16T14:23:21;3.92;;;2.25;;
74957;SDS011;63741;42.624;26.276;2023-07-16T14:25:48;11.02;;;2.97;;
74957;SDS011;63741;42.624;26.276;2023-07-16T14:28:15;4.38;;;2.15;;
74957;SDS011;63741;42.624;26.276;2023-07-16T14:30:41;6.50;;;2.55;;
74957;SDS011;63741;42.624;26.276;2023-07-16T14:33:08;8.32;;;2.60;;
74957;SDS011;63741;42.624;26.276;2023-07-16T14:35:35;4.40;;;2.40;;
74957;SDS011;63741;42.624;26.276;2023-07-16T14:38:04;6.55;;;2.95;;
74957;SDS011;63741;42.624;26.276;2023-07-16T14:40:31;5.38;;;2.60;;
74957;SDS011;63741;42.624;26.276;2023-07-16T14:42:58;9.60;;;2.78;;
74957;SDS011;63741;42.624;26.276;2023-07-16T14:45:25;9.05;;;2.45;;
74957;SDS011;63741;42.624;26.276;2023-07-16T14:47:52;12.77;;;3.20;;